Terminal Aerodrome Forecast
Issued by NWS Shreveport, LA

Home | Current Version | Previous Version | Text Only | Print | Product List | Glossary On
Versions: 1 2 3 4 5 6 7 8 9 10 11 12 13 14
000
FTUS44 KSHV 290500
TAFGGG
TAF
KGGG 290525Z 2906/3006 17005KT P6SM BKN250
     FM291500 17007KT P6SM SCT050
     FM291800 17009KT P6SM VCTS BKN050CB
     FM300000 16007KT P6SM VCSH BKN050 BKN110=

USA.gov is the U.S. government's official web portal to all federal, state and local government web resources and services.